sensor_id;sensor_type;location;lat;lon;timestamp;pressure;altitude;pressure_sealevel;temperature;humidity
24962;BME280;12992;50.884;13.668;2022-10-30T00:00:56;97692.03;;;17.61;76.62
24962;BME280;12992;50.884;13.668;2022-10-30T00:03:21;97670.97;;;17.46;78.81
24962;BME280;12992;50.884;13.668;2022-10-30T00:05:48;97670.31;;;17.31;82.19
24962;BME280;12992;50.884;13.668;2022-10-30T00:08:17;97686.63;;;17.51;77.52
24962;BME280;12992;50.884;13.668;2022-10-30T00:10:43;97669.00;;;17.52;78.29
24962;BME280;12992;50.884;13.668;2022-10-30T00:13:09;97671.03;;;17.65;76.52
24962;BME280;12992;50.884;13.668;2022-10-30T00:15:34;97660.03;;;17.65;76.38
24962;BME280;12992;50.884;13.668;2022-10-30T00:18:00;97651.06;;;17.54;77.63
24962;BME280;12992;50.884;13.668;2022-10-30T00:20:26;97632.72;;;17.45;78.30
24962;BME280;12992;50.884;13.668;2022-10-30T00:22:51;97625.94;;;17.37;78.50
24962;BME280;12992;50.884;13.668;2022-10-30T00:25:17;97621.53;;;17.36;78.16
24962;BME280;12992;50.884;13.668;2022-10-30T00:27:42;97613.91;;;17.28;79.30
24962;BME280;12992;50.884;13.668;2022-10-30T00:30:08;97605.53;;;17.14;80.12
24962;BME280;12992;50.884;13.668;2022-10-30T00:32:34;97594.09;;;17.02;80.82
24962;BME280;12992;50.884;13.668;2022-10-30T00:34:59;97593.91;;;16.93;80.98
24962;BME280;12992;50.884;13.668;2022-10-30T00:37:25;97591.78;;;16.85;81.44
24962;BME280;12992;50.884;13.668;2022-10-30T00:39:50;97588.59;;;16.73;82.64
24962;BME280;12992;50.884;13.668;2022-10-30T00:42:16;97579.53;;;16.67;82.46
24962;BME280;12992;50.884;13.668;2022-10-30T00:49:38;97561.75;;;16.26;85.82
24962;BME280;12992;50.884;13.668;2022-10-30T00:52:07;97551.47;;;16.02;86.39
24962;BME280;12992;50.884;13.668;2022-10-30T00:54:34;97549.13;;;15.80;89.79
24962;BME280;12992;50.884;13.668;2022-10-30T00:57:02;97543.50;;;15.51;91.14
24962;BME280;12992;50.884;13.668;2022-10-30T00:59:32;97549.38;;;15.29;97.18
24962;BME280;12992;50.884;13.668;2022-10-30T01:02:01;97546.97;;;15.13;95.07
24962;BME280;12992;50.884;13.668;2022-10-30T01:04:28;97547.00;;;14.92;96.71
24962;BME280;12992;50.884;13.668;2022-10-30T01:06:56;97544.03;;;14.73;98.15
24962;BME280;12992;50.884;13.668;2022-10-30T01:09:22;97551.75;;;14.61;99.99
24962;BME280;12992;50.884;13.668;2022-10-30T01:11:48;97568.97;;;14.72;98.23
24962;BME280;12992;50.884;13.668;2022-10-30T01:14:16;97582.66;;;14.92;95.73
24962;BME280;12992;50.884;13.668;2022-10-30T01:17:15;97558.03;;;14.77;96.13
24962;BME280;12992;50.884;13.668;2022-10-30T01:20:22;97553.06;;;14.74;96.44
24962;BME280;12992;50.884;13.668;2022-10-30T01:23:15;97554.19;;;14.68;96.38
24962;BME280;12992;50.884;13.668;2022-10-30T01:26:10;97539.41;;;14.59;97.47
24962;BME280;12992;50.884;13.668;2022-10-30T01:34:54;97526.53;;;14.13;100.00
24962;BME280;12992;50.884;13.668;2022-10-30T01:37:41;97537.72;;;14.12;100.00
24962;BME280;12992;50.884;13.668;2022-10-30T01:40:15;97524.59;;;13.99;100.00
24962;BME280;12992;50.884;13.668;2022-10-30T01:42:57;97526.22;;;13.95;100.00
24962;BME280;12992;50.884;13.668;2022-10-30T01:57:08;97544.28;;;13.85;100.00
24962;BME280;12992;50.884;13.668;2022-10-30T01:59:49;97548.66;;;13.81;100.00
24962;BME280;12992;50.884;13.668;2022-10-30T02:02:15;97555.22;;;13.85;100.00
24962;BME280;12992;50.884;13.668;2022-10-30T02:04:41;97555.22;;;13.85;100.00
24962;BME280;12992;50.884;13.668;2022-10-30T02:07:09;97543.16;;;13.76;100.00
24962;BME280;12992;50.884;13.668;2022-10-30T02:09:41;97549.75;;;13.70;100.00
24962;BME280;12992;50.884;13.668;2022-10-30T02:12:07;97555.72;;;13.57;100.00
24962;BME280;12992;50.884;13.668;2022-10-30T02:14:40;97538.41;;;13.41;100.00
24962;BME280;12992;50.884;13.668;2022-10-30T02:17:07;97551.81;;;13.38;100.00
24962;BME280;12992;50.884;13.668;2022-10-30T02:19:34;97560.03;;;13.43;100.00
24962;BME280;12992;50.884;13.668;2022-10-30T02:22:01;97553.13;;;13.25;100.00
24962;BME280;12992;50.884;13.668;2022-10-30T02:24:27;97546.25;;;13.17;100.00
24962;BME280;12992;50.884;13.668;2022-10-30T02:26:52;97555.78;;;13.15;100.00
24962;BME280;12992;50.884;13.668;2022-10-30T02:29:18;97557.69;;;13.14;100.00
24962;BME280;12992;50.884;13.668;2022-10-30T02:31:45;97560.50;;;13.19;100.00
24962;BME280;12992;50.884;13.668;2022-10-30T02:34:11;97571.22;;;13.31;100.00
24962;BME280;12992;50.884;13.668;2022-10-30T02:36:37;97577.81;;;13.40;100.00
24962;BME280;12992;50.884;13.668;2022-10-30T02:39:08;97560.00;;;13.32;100.00
24962;BME280;12992;50.884;13.668;2022-10-30T02:41:34;97558.59;;;13.20;100.00
24962;BME280;12992;50.884;13.668;2022-10-30T02:44:00;97555.47;;;13.06;100.00
24962;BME280;12992;50.884;13.668;2022-10-30T02:46:26;97559.59;;;13.09;100.00
24962;BME280;12992;50.884;13.668;2022-10-30T02:48:51;97567.00;;;13.13;100.00
24962;BME280;12992;50.884;13.668;2022-10-30T02:51:16;97567.63;;;13.20;100.00
24962;BME280;12992;50.884;13.668;2022-10-30T02:53:42;97563.25;;;13.19;100.00
24962;BME280;12992;50.884;13.668;2022-10-30T02:56:11;97561.59;;;13.23;100.00
24962;BME280;12992;50.884;13.668;2022-10-30T02:58:38;97564.59;;;13.22;100.00
24962;BME280;12992;50.884;13.668;2022-10-30T03:01:09;97559.88;;;13.12;100.00
24962;BME280;12992;50.884;13.668;2022-10-30T03:03:35;97554.97;;;13.09;100.00
24962;BME280;12992;50.884;13.668;2022-10-30T03:06:06;97576.28;;;13.12;100.00
24962;BME280;12992;50.884;13.668;2022-10-30T03:08:34;97587.31;;;13.22;100.00
24962;BME280;12992;50.884;13.668;2022-10-30T03:11:06;97594.47;;;13.33;100.00
24962;BME280;12992;50.884;13.668;2022-10-30T03:13:32;97603.56;;;13.49;100.00
24962;BME280;12992;50.884;13.668;2022-10-30T03:16:03;97595.09;;;13.51;100.00
24962;BME280;12992;50.884;13.668;2022-10-30T03:18:30;97594.03;;;13.57;100.00
24962;BME280;12992;50.884;13.668;2022-10-30T03:21:01;97590.75;;;13.60;100.00
24962;BME280;12992;50.884;13.668;2022-10-30T03:23:27;97584.72;;;13.58;100.00
24962;BME280;12992;50.884;13.668;2022-10-30T03:25:54;97592.94;;;13.53;100.00
24962;BME280;12992;50.884;13.668;2022-10-30T03:28:21;97596.22;;;13.55;100.00
24962;BME280;12992;50.884;13.668;2022-10-30T03:30:49;97582.97;;;13.31;100.00
24962;BME280;12992;50.884;13.668;2022-10-30T03:33:14;97593.41;;;13.40;100.00
24962;BME280;12992;50.884;13.668;2022-10-30T03:35:45;97610.94;;;13.44;100.00
24962;BME280;12992;50.884;13.668;2022-10-30T03:38:13;97616.41;;;13.44;100.00
24962;BME280;12992;50.884;13.668;2022-10-30T03:40:39;97615.84;;;13.42;100.00
24962;BME280;12992;50.884;13.668;2022-10-30T03:43:05;97622.44;;;13.51;100.00
24962;BME280;12992;50.884;13.668;2022-10-30T03:45:34;97613.44;;;13.55;100.00
24962;BME280;12992;50.884;13.668;2022-10-30T03:48:04;97627.47;;;13.74;100.00
24962;BME280;12992;50.884;13.668;2022-10-30T03:50:31;97630.53;;;13.88;100.00
24962;BME280;12992;50.884;13.668;2022-10-30T03:52:57;97605.56;;;13.74;100.00
24962;BME280;12992;50.884;13.668;2022-10-30T03:55:23;97616.50;;;13.69;100.00
24962;BME280;12992;50.884;13.668;2022-10-30T03:57:49;97609.91;;;13.60;100.00
24962;BME280;12992;50.884;13.668;2022-10-30T04:00:16;97617.28;;;13.59;100.00
24962;BME280;12992;50.884;13.668;2022-10-30T04:02:53;97608.53;;;13.57;100.00
24962;BME280;12992;50.884;13.668;2022-10-30T04:05:21;97614.31;;;13.66;100.00
24962;BME280;12992;50.884;13.668;2022-10-30T04:07:47;97618.16;;;13.75;100.00
24962;BME280;12992;50.884;13.668;2022-10-30T04:10:13;97612.16;;;13.73;100.00
24962;BME280;12992;50.884;13.668;2022-10-30T04:12:39;97614.34;;;13.71;100.00
24962;BME280;12992;50.884;13.668;2022-10-30T04:15:06;97610.47;;;13.67;100.00
24962;BME280;12992;50.884;13.668;2022-10-30T04:17:33;97607.75;;;13.67;100.00
24962;BME280;12992;50.884;13.668;2022-10-30T04:20:02;97600.31;;;13.57;100.00
24962;BME280;12992;50.884;13.668;2022-10-30T04:22:30;97610.75;;;13.66;100.00
24962;BME280;12992;50.884;13.668;2022-10-30T04:24:55;97606.13;;;13.71;100.00
24962;BME280;12992;50.884;13.668;2022-10-30T04:27:21;97596.50;;;13.69;100.00
24962;BME280;12992;50.884;13.668;2022-10-30T04:29:47;97606.09;;;13.66;100.00
24962;BME280;12992;50.884;13.668;2022-10-30T04:32:13;97594.88;;;13.63;100.00
24962;BME280;12992;50.884;13.668;2022-10-30T04:34:38;97610.78;;;13.71;100.00
24962;BME280;12992;50.884;13.668;2022-10-30T04:37:05;97594.59;;;13.64;100.00
24962;BME280;12992;50.884;13.668;2022-10-30T04:39:31;97572.66;;;13.44;100.00
24962;BME280;12992;50.884;13.668;2022-10-30T04:42:04;97589.34;;;13.47;100.00
24962;BME280;12992;50.884;13.668;2022-10-30T04:44:32;97588.28;;;13.53;100.00
24962;BME280;12992;50.884;13.668;2022-10-30T04:46:57;97590.75;;;13.55;100.00
24962;BME280;12992;50.884;13.668;2022-10-30T04:49:23;97570.75;;;13.49;100.00
24962;BME280;12992;50.884;13.668;2022-10-30T04:51:48;97560.00;;;13.32;100.00
24962;BME280;12992;50.884;13.668;2022-10-30T04:54:15;97583.84;;;13.37;100.00
24962;BME280;12992;50.884;13.668;2022-10-30T04:56:41;97573.69;;;13.32;100.00
24962;BME280;12992;50.884;13.668;2022-10-30T04:59:06;97575.91;;;13.36;100.00
24962;BME280;12992;50.884;13.668;2022-10-30T05:01:31;97580.00;;;13.38;100.00
24962;BME280;12992;50.884;13.668;2022-10-30T05:03:57;97574.28;;;13.45;100.00
24962;BME280;12992;50.884;13.668;2022-10-30T05:06:25;97573.16;;;13.41;100.00
24962;BME280;12992;50.884;13.668;2022-10-30T05:08:52;97577.03;;;13.50;99.66
24962;BME280;12992;50.884;13.668;2022-10-30T05:11:29;97569.41;;;13.52;99.21
24962;BME280;12992;50.884;13.668;2022-10-30T05:13:55;97566.34;;;13.43;100.00
24962;BME280;12992;50.884;13.668;2022-10-30T05:16:20;97556.72;;;13.30;100.00
24962;BME280;12992;50.884;13.668;2022-10-30T05:18:46;97547.84;;;13.08;100.00
24962;BME280;12992;50.884;13.668;2022-10-30T05:21:11;97547.50;;;12.94;100.00
24962;BME280;12992;50.884;13.668;2022-10-30T05:23:37;97549.09;;;12.85;100.00
24962;BME280;12992;50.884;13.668;2022-10-30T05:26:04;97575.66;;;12.95;100.00
24962;BME280;12992;50.884;13.668;2022-10-30T05:28:30;97578.94;;;12.97;100.00
24962;BME280;12992;50.884;13.668;2022-10-30T05:30:57;97570.19;;;12.95;100.00
24962;BME280;12992;50.884;13.668;2022-10-30T05:33:44;97578.44;;;13.00;100.00
24962;BME280;12992;50.884;13.668;2022-10-30T05:36:09;97602.53;;;13.08;100.00
24962;BME280;12992;50.884;13.668;2022-10-30T05:38:35;97599.25;;;13.11;100.00
24962;BME280;12992;50.884;13.668;2022-10-30T05:41:01;97609.09;;;13.12;100.00
24962;BME280;12992;50.884;13.668;2022-10-30T05:43:26;97597.06;;;13.08;100.00
24962;BME280;12992;50.884;13.668;2022-10-30T05:45:52;97605.00;;;13.10;100.00
24962;BME280;12992;50.884;13.668;2022-10-30T05:48:17;97600.34;;;13.10;100.00
24962;BME280;12992;50.884;13.668;2022-10-30T05:50:45;97605.91;;;13.20;100.00
24962;BME280;12992;50.884;13.668;2022-10-30T05:53:29;97606.41;;;13.17;100.00
24962;BME280;12992;50.884;13.668;2022-10-30T05:55:56;97616.91;;;13.30;100.00
24962;BME280;12992;50.884;13.668;2022-10-30T05:58:24;97621.81;;;13.33;100.00
24962;BME280;12992;50.884;13.668;2022-10-30T06:00:50;97604.84;;;13.31;100.00
24962;BME280;12992;50.884;13.668;2022-10-30T06:03:28;97618.06;;;13.50;100.00
24962;BME280;12992;50.884;13.668;2022-10-30T06:05:54;97612.31;;;13.51;100.00
24962;BME280;12992;50.884;13.668;2022-10-30T06:08:20;97612.63;;;13.60;99.90
24962;BME280;12992;50.884;13.668;2022-10-30T06:10:48;97615.97;;;13.72;97.18
24962;BME280;12992;50.884;13.668;2022-10-30T06:13:17;97600.66;;;13.71;98.38
24962;BME280;12992;50.884;13.668;2022-10-30T06:15:56;97603.09;;;13.68;100.00
24962;BME280;12992;50.884;13.668;2022-10-30T06:18:23;97606.66;;;13.63;100.00
24962;BME280;12992;50.884;13.668;2022-10-30T06:20:54;97608.28;;;13.69;98.94
24962;BME280;12992;50.884;13.668;2022-10-30T06:23:47;97614.88;;;13.73;100.00
24962;BME280;12992;50.884;13.668;2022-10-30T06:26:25;97624.19;;;13.72;100.00
24962;BME280;12992;50.884;13.668;2022-10-30T06:28:54;97613.50;;;13.71;100.00
24962;BME280;12992;50.884;13.668;2022-10-30T06:31:20;97619.00;;;13.76;98.24
24962;BME280;12992;50.884;13.668;2022-10-30T06:33:45;97633.28;;;13.88;97.63
24962;BME280;12992;50.884;13.668;2022-10-30T06:36:12;97636.84;;;13.94;98.63
24962;BME280;12992;50.884;13.668;2022-10-30T06:38:37;97630.28;;;13.89;97.44
24962;BME280;12992;50.884;13.668;2022-10-30T06:41:04;97639.84;;;13.92;98.96
24962;BME280;12992;50.884;13.668;2022-10-30T06:43:39;97645.63;;;14.01;98.08
24962;BME280;12992;50.884;13.668;2022-10-30T06:46:18;97643.16;;;14.04;98.55
24962;BME280;12992;50.884;13.668;2022-10-30T06:48:44;97671.16;;;14.27;93.70
24962;BME280;12992;50.884;13.668;2022-10-30T06:51:10;97657.19;;;14.38;95.59
24962;BME280;12992;50.884;13.668;2022-10-30T06:53:38;97663.22;;;14.35;98.74
24962;BME280;12992;50.884;13.668;2022-10-30T06:56:22;97659.13;;;14.43;95.42
24962;BME280;12992;50.884;13.668;2022-10-30T06:59:26;97655.84;;;14.41;94.10
24962;BME280;12992;50.884;13.668;2022-10-30T07:02:10;97670.41;;;14.52;95.73
24962;BME280;12992;50.884;13.668;2022-10-30T07:04:44;97686.03;;;14.71;92.30
24962;BME280;12992;50.884;13.668;2022-10-30T07:07:11;97677.56;;;14.68;93.07
24962;BME280;12992;50.884;13.668;2022-10-30T07:09:36;97686.88;;;14.77;94.67
24962;BME280;12992;50.884;13.668;2022-10-30T07:12:02;97696.75;;;14.93;90.80
24962;BME280;12992;50.884;13.668;2022-10-30T07:14:44;97684.94;;;14.98;90.59
24962;BME280;12992;50.884;13.668;2022-10-30T07:17:09;97682.22;;;15.03;89.85
24962;BME280;12992;50.884;13.668;2022-10-30T07:19:36;97675.91;;;15.02;91.19
24962;BME280;12992;50.884;13.668;2022-10-30T07:22:03;97666.56;;;14.98;91.90
24962;BME280;12992;50.884;13.668;2022-10-30T07:24:29;97683.03;;;15.14;89.61
24962;BME280;12992;50.884;13.668;2022-10-30T07:27:24;97688.50;;;15.24;89.34
24962;BME280;12992;50.884;13.668;2022-10-30T07:29:59;97691.50;;;15.38;89.52
24962;BME280;12992;50.884;13.668;2022-10-30T07:32:32;97729.50;;;16.00;87.35
24962;BME280;12992;50.884;13.668;2022-10-30T07:35:10;97733.16;;;16.45;84.28
24962;BME280;12992;50.884;13.668;2022-10-30T07:37:55;97754.00;;;16.95;83.00
24962;BME280;12992;50.884;13.668;2022-10-30T07:40:32;97763.78;;;17.46;81.89
24962;BME280;12992;50.884;13.668;2022-10-30T07:43:18;97769.00;;;18.05;79.31
24962;BME280;12992;50.884;13.668;2022-10-30T07:46:06;97790.84;;;18.87;76.49
24962;BME280;12992;50.884;13.668;2022-10-30T07:48:54;97798.00;;;19.91;73.48
24962;BME280;12992;50.884;13.668;2022-10-30T07:51:34;97805.38;;;21.06;70.96
24962;BME280;12992;50.884;13.668;2022-10-30T07:54:00;97810.13;;;21.95;67.64
24962;BME280;12992;50.884;13.668;2022-10-30T07:56:26;97818.13;;;22.76;68.24
24962;BME280;12992;50.884;13.668;2022-10-30T07:58:54;97808.91;;;23.58;67.98
24962;BME280;12992;50.884;13.668;2022-10-30T08:01:38;97690.56;;;22.45;66.21
24962;BME280;12992;50.884;13.668;2022-10-30T08:04:22;97718.59;;;22.34;68.22
24962;BME280;12992;50.884;13.668;2022-10-30T08:06:47;97743.38;;;22.97;66.16
24962;BME280;12992;50.884;13.668;2022-10-30T08:09:13;97683.06;;;22.71;65.35
24962;BME280;12992;50.884;13.668;2022-10-30T08:11:38;97691.69;;;22.78;65.93
24962;BME280;12992;50.884;13.668;2022-10-30T08:14:04;97588.66;;;21.00;71.18
24962;BME280;12992;50.884;13.668;2022-10-30T08:16:29;97630.47;;;21.12;71.30
24962;BME280;12992;50.884;13.668;2022-10-30T08:18:56;97632.84;;;21.05;71.44
24962;BME280;12992;50.884;13.668;2022-10-30T08:21:23;97604.84;;;20.62;73.29
24962;BME280;12992;50.884;13.668;2022-10-30T08:24:03;97578.50;;;19.92;75.36
24962;BME280;12992;50.884;13.668;2022-10-30T08:26:31;97625.88;;;20.13;76.24
24962;BME280;12992;50.884;13.668;2022-10-30T08:28:56;97606.06;;;19.97;77.44
24962;BME280;12992;50.884;13.668;2022-10-30T08:31:23;97620.59;;;19.89;80.22
24962;BME280;12992;50.884;13.668;2022-10-30T08:34:01;97620.59;;;19.75;79.76
24962;BME280;12992;50.884;13.668;2022-10-30T08:36:32;97607.09;;;19.60;81.56
24962;BME280;12992;50.884;13.668;2022-10-30T08:38:58;97612.09;;;19.44;83.41
24962;BME280;12992;50.884;13.668;2022-10-30T08:41:37;97611.25;;;19.30;85.57
24962;BME280;12992;50.884;13.668;2022-10-30T08:44:03;97614.72;;;19.22;85.11
24962;BME280;12992;50.884;13.668;2022-10-30T08:46:42;97608.06;;;19.23;81.20
24962;BME280;12992;50.884;13.668;2022-10-30T08:49:08;97604.78;;;19.21;81.68
24962;BME280;12992;50.884;13.668;2022-10-30T08:51:38;97608.56;;;19.25;80.28
24962;BME280;12992;50.884;13.668;2022-10-30T08:54:07;97605.22;;;19.28;79.33
24962;BME280;12992;50.884;13.668;2022-10-30T08:56:33;97601.03;;;19.31;79.23
24962;BME280;12992;50.884;13.668;2022-10-30T08:59:09;97602.97;;;19.30;79.99
24962;BME280;12992;50.884;13.668;2022-10-30T09:01:35;97600.19;;;19.30;81.46
24962;BME280;12992;50.884;13.668;2022-10-30T09:04:29;97616.88;;;19.39;83.13
24962;BME280;12992;50.884;13.668;2022-10-30T09:07:26;97607.78;;;19.38;83.65
24962;BME280;12992;50.884;13.668;2022-10-30T09:10:24;97609.84;;;19.46;80.50
24962;BME280;12992;50.884;13.668;2022-10-30T09:12:56;97607.06;;;19.46;80.34
24962;BME280;12992;50.884;13.668;2022-10-30T09:15:22;97599.50;;;19.38;84.90
24962;BME280;12992;50.884;13.668;2022-10-30T09:17:58;97595.88;;;19.24;84.43
24962;BME280;12992;50.884;13.668;2022-10-30T09:20:25;97596.63;;;19.30;82.41
24962;BME280;12992;50.884;13.668;2022-10-30T09:22:51;97598.66;;;19.24;84.89
24962;BME280;12992;50.884;13.668;2022-10-30T09:25:17;97611.44;;;19.34;83.65
24962;BME280;12992;50.884;13.668;2022-10-30T09:27:50;97609.50;;;19.34;84.55
24962;BME280;12992;50.884;13.668;2022-10-30T09:30:16;97632.50;;;19.62;81.61
24962;BME280;12992;50.884;13.668;2022-10-30T09:32:53;97657.03;;;19.91;82.26
24962;BME280;12992;50.884;13.668;2022-10-30T09:35:19;97670.84;;;20.19;78.38
24962;BME280;12992;50.884;13.668;2022-10-30T09:37:44;97666.91;;;20.47;74.75
24962;BME280;12992;50.884;13.668;2022-10-30T09:40:22;97664.03;;;20.75;73.32
24962;BME280;12992;50.884;13.668;2022-10-30T09:42:49;97678.28;;;21.04;72.71
24962;BME280;12992;50.884;13.668;2022-10-30T09:50:30;97711.06;;;21.87;73.54
24962;BME280;12992;50.884;13.668;2022-10-30T09:53:21;97702.31;;;22.02;71.78
24962;BME280;12992;50.884;13.668;2022-10-30T09:56:03;97699.28;;;22.12;74.14
24962;BME280;12992;50.884;13.668;2022-10-30T10:01:22;97732.00;;;22.50;81.62
24962;BME280;12992;50.884;13.668;2022-10-30T10:04:14;97756.63;;;23.34;77.56
24962;BME280;12992;50.884;13.668;2022-10-30T10:06:45;97758.78;;;24.01;74.32
24962;BME280;12992;50.884;13.668;2022-10-30T10:09:20;97732.75;;;24.44;69.21
24962;BME280;12992;50.884;13.668;2022-10-30T10:12:21;97754.97;;;25.24;69.77
24962;BME280;12992;50.884;13.668;2022-10-30T10:14:49;97745.13;;;25.81;65.21
24962;BME280;12992;50.884;13.668;2022-10-30T10:17:24;97734.00;;;26.30;64.38
24962;BME280;12992;50.884;13.668;2022-10-30T10:20:00;97706.19;;;26.58;58.47
24962;BME280;12992;50.884;13.668;2022-10-30T10:22:37;97677.56;;;26.36;58.72
24962;BME280;12992;50.884;13.668;2022-10-30T10:25:12;97676.41;;;26.37;59.51
24962;BME280;12992;50.884;13.668;2022-10-30T10:28:03;97686.09;;;26.52;63.44
24962;BME280;12992;50.884;13.668;2022-10-30T10:30:40;97656.75;;;26.46;57.95
24962;BME280;12992;50.884;13.668;2022-10-30T10:33:24;97630.25;;;26.15;59.40
24962;BME280;12992;50.884;13.668;2022-10-30T10:42:00;97657.47;;;26.18;67.96
24962;BME280;12992;50.884;13.668;2022-10-30T10:49:50;97686.69;;;27.54;63.44
24962;BME280;12992;50.884;13.668;2022-10-30T10:52:34;97680.09;;;28.06;59.54
24962;BME280;12992;50.884;13.668;2022-10-30T10:55:05;97653.31;;;28.24;59.60
24962;BME280;12992;50.884;13.668;2022-10-30T10:57:32;97626.44;;;28.19;59.56
24962;BME280;12992;50.884;13.668;2022-10-30T11:02:53;97590.50;;;27.58;58.85
24962;BME280;12992;50.884;13.668;2022-10-30T11:05:33;97583.16;;;27.22;59.03
24962;BME280;12992;50.884;13.668;2022-10-30T11:08:25;97538.16;;;26.56;61.32
24962;BME280;12992;50.884;13.668;2022-10-30T11:10:58;97568.22;;;26.74;59.84
24962;BME280;12992;50.884;13.668;2022-10-30T11:13:27;97590.84;;;26.97;60.82
24962;BME280;12992;50.884;13.668;2022-10-30T11:16:08;97560.03;;;26.81;59.03
24962;BME280;12992;50.884;13.668;2022-10-30T11:18:37;97545.41;;;26.72;60.16
24962;BME280;12992;50.884;13.668;2022-10-30T11:21:10;97547.09;;;26.61;58.92
24962;BME280;12992;50.884;13.668;2022-10-30T11:23:41;97553.59;;;26.65;58.91
24962;BME280;12992;50.884;13.668;2022-10-30T11:28:48;97526.75;;;26.48;59.61
24962;BME280;12992;50.884;13.668;2022-10-30T11:36:46;97526.34;;;26.34;60.85
24962;BME280;12992;50.884;13.668;2022-10-30T11:39:25;97531.09;;;26.46;58.36
24962;BME280;12992;50.884;13.668;2022-10-30T11:42:03;97519.00;;;26.42;59.06
24962;BME280;12992;50.884;13.668;2022-10-30T11:44:52;97517.84;;;26.43;58.05
24962;BME280;12992;50.884;13.668;2022-10-30T11:47:19;97526.41;;;26.50;61.06
24962;BME280;12992;50.884;13.668;2022-10-30T11:49:54;97497.13;;;26.32;59.11
24962;BME280;12992;50.884;13.668;2022-10-30T11:52:22;97527.03;;;26.43;62.13
24962;BME280;12992;50.884;13.668;2022-10-30T11:54:59;97502.81;;;26.35;60.23
24962;BME280;12992;50.884;13.668;2022-10-30T11:57:57;97503.88;;;26.43;59.70
24962;BME280;12992;50.884;13.668;2022-10-30T12:00:24;97532.03;;;26.66;61.64
24962;BME280;12992;50.884;13.668;2022-10-30T12:02:52;97487.56;;;26.45;58.72
24962;BME280;12992;50.884;13.668;2022-10-30T12:07:50;97508.28;;;26.44;62.42
24962;BME280;12992;50.884;13.668;2022-10-30T12:10:28;97489.22;;;26.34;61.01
24962;BME280;12992;50.884;13.668;2022-10-30T12:12:54;97482.63;;;26.14;63.15
24962;BME280;12992;50.884;13.668;2022-10-30T12:15:23;97470.84;;;25.92;63.34
24962;BME280;12992;50.884;13.668;2022-10-30T12:18:00;97487.22;;;25.94;64.76
24962;BME280;12992;50.884;13.668;2022-10-30T12:20:27;97487.09;;;26.03;65.20
24962;BME280;12992;50.884;13.668;2022-10-30T12:22:53;97488.84;;;26.07;63.53
24962;BME280;12992;50.884;13.668;2022-10-30T12:25:25;97454.81;;;25.77;63.17
24962;BME280;12992;50.884;13.668;2022-10-30T12:28:02;97447.84;;;25.59;63.46
24962;BME280;12992;50.884;13.668;2022-10-30T12:30:30;97441.13;;;25.35;65.56
24962;BME280;12992;50.884;13.668;2022-10-30T12:33:02;97450.09;;;25.29;64.99
24962;BME280;12992;50.884;13.668;2022-10-30T12:38:22;97433.59;;;25.11;64.02
24962;BME280;12992;50.884;13.668;2022-10-30T12:41:19;97427.53;;;24.85;66.20
24962;BME280;12992;50.884;13.668;2022-10-30T12:44:33;97422.50;;;24.66;66.50
24962;BME280;12992;50.884;13.668;2022-10-30T12:47:18;97427.13;;;24.62;67.16
24962;BME280;12992;50.884;13.668;2022-10-30T12:49:53;97417.84;;;24.58;66.77
24962;BME280;12992;50.884;13.668;2022-10-30T12:52:38;97414.44;;;24.40;68.71
24962;BME280;12992;50.884;13.668;2022-10-30T12:57:48;97401.31;;;24.20;67.38
24962;BME280;12992;50.884;13.668;2022-10-30T13:00:17;97402.91;;;24.09;68.35
24962;BME280;12992;50.884;13.668;2022-10-30T13:02:54;97397.25;;;24.05;67.86
24962;BME280;12992;50.884;13.668;2022-10-30T13:05:32;97402.81;;;24.05;68.55
24962;BME280;12992;50.884;13.668;2022-10-30T13:08:11;97396.97;;;23.98;70.63
24962;BME280;12992;50.884;13.668;2022-10-30T13:10:45;97395.28;;;23.85;70.93
24962;BME280;12992;50.884;13.668;2022-10-30T13:13:19;97386.25;;;23.67;71.91
24962;BME280;12992;50.884;13.668;2022-10-30T13:15:54;97386.84;;;23.52;72.34
24962;BME280;12992;50.884;13.668;2022-10-30T13:18:23;97376.34;;;23.36;73.36
24962;BME280;12992;50.884;13.668;2022-10-30T13:26:32;97369.88;;;22.94;75.40
24962;BME280;12992;50.884;13.668;2022-10-30T13:29:06;97369.44;;;22.83;75.30
24962;BME280;12992;50.884;13.668;2022-10-30T13:37:15;97347.22;;;22.45;74.99
24962;BME280;12992;50.884;13.668;2022-10-30T13:45:31;97374.38;;;22.31;81.25
24962;BME280;12992;50.884;13.668;2022-10-30T13:48:17;97372.09;;;22.16;82.69
24962;BME280;12992;50.884;13.668;2022-10-30T13:53:46;97387.31;;;21.92;86.65
24962;BME280;12992;50.884;13.668;2022-10-30T13:56:15;97386.81;;;21.73;89.23
24962;BME280;12992;50.884;13.668;2022-10-30T13:58:45;97403.94;;;21.66;91.10
24962;BME280;12992;50.884;13.668;2022-10-30T14:04:19;97410.75;;;21.43;91.68
24962;BME280;12992;50.884;13.668;2022-10-30T14:07:13;97403.59;;;21.42;87.68
24962;BME280;12992;50.884;13.668;2022-10-30T14:09:53;97400.97;;;21.37;88.24
24962;BME280;12992;50.884;13.668;2022-10-30T14:20:41;97427.88;;;20.88;100.00
24962;BME280;12992;50.884;13.668;2022-10-30T14:23:13;97415.91;;;20.70;98.61
24962;BME280;12992;50.884;13.668;2022-10-30T14:25:40;97416.81;;;20.57;96.67
24962;BME280;12992;50.884;13.668;2022-10-30T14:28:18;97421.16;;;20.49;97.03
24962;BME280;12992;50.884;13.668;2022-10-30T14:30:44;97430.22;;;20.41;100.00
24962;BME280;12992;50.884;13.668;2022-10-30T14:33:32;97450.13;;;20.43;100.00
24962;BME280;12992;50.884;13.668;2022-10-30T14:36:17;97456.31;;;20.49;100.00
24962;BME280;12992;50.884;13.668;2022-10-30T14:39:39;97459.31;;;20.38;100.00
24962;BME280;12992;50.884;13.668;2022-10-30T14:41:47;97451.88;;;20.17;100.00